Araguacu, Brazil
Current Conditions -  °F | °C
As of 9:00 PM on Thursday 18 Dec 2014 (Local Time) from SBML Reporting Station
Scattered Clouds Scattered Clouds  
Wind Chill: 84°   Ceiling: Unl
Heat Index: 84°   Visibility: 6mi
Dew Point: 61°   Wind: 2mph
Humidity: 45%   Direction: 160°SSE
Pressure: 29.85"   Gusts: NA
Location:  22.42°S, 49.82°W
Report Text: SBML 182300Z 16002KT 9999 SCT040 SCT090 29/16 Q1011
Loading
Personal Weather Stations






























Interactive Weather Map New forecast layout! Learn more

10-Day Weather Forecast

Advertisements
Track Severe Weather on mobile